sensor_id;sensor_type;location;lat;lon;timestamp;pressure;altitude;pressure_sealevel;temperature;humidity
4598;BME280;62772;48.646;8.906;2023-07-20T00:02:26;96200.75;;;18.64;82.28
4598;BME280;62772;48.646;8.906;2023-07-20T00:07:26;96209.69;;;18.68;81.89
4598;BME280;62772;48.646;8.906;2023-07-20T00:12:27;96209.19;;;18.09;82.45
4598;BME280;62772;48.646;8.906;2023-07-20T00:17:27;96209.09;;;17.20;88.55
4598;BME280;62772;48.646;8.906;2023-07-20T00:22:27;96207.78;;;17.72;88.23
4598;BME280;62772;48.646;8.906;2023-07-20T00:27:28;96201.25;;;17.54;88.98
4598;BME280;62772;48.646;8.906;2023-07-20T00:32:28;96209.03;;;17.79;87.83
4598;BME280;62772;48.646;8.906;2023-07-20T00:37:31;96197.13;;;16.46;94.69
4598;BME280;62772;48.646;8.906;2023-07-20T00:42:34;96203.44;;;16.54;96.49
4598;BME280;62772;48.646;8.906;2023-07-20T00:47:36;96198.56;;;16.08;99.24
4598;BME280;62772;48.646;8.906;2023-07-20T00:52:37;96199.84;;;15.99;100.00
4598;BME280;62772;48.646;8.906;2023-07-20T00:57:39;96206.66;;;15.64;100.00
4598;BME280;62772;48.646;8.906;2023-07-20T01:02:40;96208.34;;;15.40;100.00
4598;BME280;62772;48.646;8.906;2023-07-20T01:12:56;96204.91;;;15.28;100.00
4598;BME280;62772;48.646;8.906;2023-07-20T01:17:57;96200.38;;;15.60;100.00
4598;BME280;62772;48.646;8.906;2023-07-20T01:33:47;96200.63;;;16.15;100.00
4598;BME280;62772;48.646;8.906;2023-07-20T01:38:49;96195.91;;;16.44;99.32
4598;BME280;62772;48.646;8.906;2023-07-20T01:43:50;96201.53;;;16.55;99.45
4598;BME280;62772;48.646;8.906;2023-07-20T01:48:50;96197.72;;;16.40;99.69
4598;BME280;62772;48.646;8.906;2023-07-20T01:53:51;96202.97;;;16.01;100.00
4598;BME280;62772;48.646;8.906;2023-07-20T01:58:51;96199.66;;;16.23;100.00
4598;BME280;62772;48.646;8.906;2023-07-20T02:03:52;96198.97;;;15.50;100.00
4598;BME280;62772;48.646;8.906;2023-07-20T02:08:53;96194.97;;;16.20;100.00
4598;BME280;62772;48.646;8.906;2023-07-20T02:13:53;96203.06;;;16.04;100.00
4598;BME280;62772;48.646;8.906;2023-07-20T02:18:56;96189.97;;;15.30;100.00
4598;BME280;62772;48.646;8.906;2023-07-20T02:23:58;96202.97;;;16.01;100.00
4598;BME280;62772;48.646;8.906;2023-07-20T02:28:58;96191.31;;;15.96;100.00
4598;BME280;62772;48.646;8.906;2023-07-20T02:33:59;96200.38;;;15.88;100.00
4598;BME280;62772;48.646;8.906;2023-07-20T02:38:59;96207.41;;;15.49;100.00
4598;BME280;62772;48.646;8.906;2023-07-20T02:44:02;96215.75;;;15.59;100.00
4598;BME280;62772;48.646;8.906;2023-07-20T02:49:03;96207.91;;;15.38;100.00
4598;BME280;62772;48.646;8.906;2023-07-20T02:54:04;96217.22;;;15.29;100.00
4598;BME280;62772;48.646;8.906;2023-07-20T02:59:05;96209.00;;;15.09;100.00
4598;BME280;62772;48.646;8.906;2023-07-20T03:04:05;96213.03;;;15.15;100.00
4598;BME280;62772;48.646;8.906;2023-07-20T03:09:05;96208.47;;;15.32;100.00
4598;BME280;62772;48.646;8.906;2023-07-20T03:14:06;96212.63;;;15.01;100.00
4598;BME280;62772;48.646;8.906;2023-07-20T03:19:07;96210.84;;;15.05;100.00
4598;BME280;62772;48.646;8.906;2023-07-20T03:24:09;96211.75;;;15.25;100.00
4598;BME280;62772;48.646;8.906;2023-07-20T03:29:10;96213.66;;;15.24;100.00
4598;BME280;62772;48.646;8.906;2023-07-20T03:34:10;96207.75;;;15.19;100.00
4598;BME280;62772;48.646;8.906;2023-07-20T03:39:11;96213.59;;;14.43;100.00
4598;BME280;62772;48.646;8.906;2023-07-20T03:44:11;96213.13;;;14.91;100.00
4598;BME280;62772;48.646;8.906;2023-07-20T03:49:12;96219.13;;;15.00;100.00
4598;BME280;62772;48.646;8.906;2023-07-20T03:54:12;96224.34;;;14.56;100.00
4598;BME280;62772;48.646;8.906;2023-07-20T03:59:13;96225.69;;;14.49;100.00
4598;BME280;62772;48.646;8.906;2023-07-20T04:04:15;96222.22;;;14.24;100.00
4598;BME280;62772;48.646;8.906;2023-07-20T04:09:16;96227.66;;;15.02;100.00
4598;BME280;62772;48.646;8.906;2023-07-20T04:14:16;96228.97;;;15.08;100.00
4598;BME280;62772;48.646;8.906;2023-07-20T04:19:17;96224.13;;;14.48;100.00
4598;BME280;62772;48.646;8.906;2023-07-20T04:24:18;96231.50;;;14.27;100.00
4598;BME280;62772;48.646;8.906;2023-07-20T04:29:18;96237.78;;;14.68;100.00
4598;BME280;62772;48.646;8.906;2023-07-20T04:34:19;96225.22;;;14.84;100.00
4598;BME280;62772;48.646;8.906;2023-07-20T04:39:22;96240.00;;;14.54;100.00
4598;BME280;62772;48.646;8.906;2023-07-20T04:44:23;96234.66;;;14.41;100.00
4598;BME280;62772;48.646;8.906;2023-07-20T04:49:24;96229.63;;;14.40;100.00
4598;BME280;62772;48.646;8.906;2023-07-20T04:54:25;96235.63;;;14.49;100.00
4598;BME280;62772;48.646;8.906;2023-07-20T04:59:27;96239.94;;;14.62;100.00
4598;BME280;62772;48.646;8.906;2023-07-20T05:04:28;96236.19;;;14.79;100.00
4598;BME280;62772;48.646;8.906;2023-07-20T05:09:28;96247.50;;;14.85;100.00
4598;BME280;62772;48.646;8.906;2023-07-20T05:14:29;96233.25;;;14.97;100.00
4598;BME280;62772;48.646;8.906;2023-07-20T05:19:30;96235.13;;;15.09;100.00
4598;BME280;62772;48.646;8.906;2023-07-20T05:24:31;96231.28;;;15.22;100.00
4598;BME280;62772;48.646;8.906;2023-07-20T05:29:31;96225.91;;;15.50;100.00
4598;BME280;62772;48.646;8.906;2023-07-20T05:34:33;96223.41;;;15.57;100.00
4598;BME280;62772;48.646;8.906;2023-07-20T05:39:33;96223.25;;;15.66;100.00
4598;BME280;62772;48.646;8.906;2023-07-20T05:44:34;96228.88;;;15.89;100.00
4598;BME280;62772;48.646;8.906;2023-07-20T05:49:35;96227.91;;;15.98;100.00
4598;BME280;62772;48.646;8.906;2023-07-20T05:54:36;96224.63;;;16.04;100.00
4598;BME280;62772;48.646;8.906;2023-07-20T05:59:36;96226.78;;;16.14;100.00
4598;BME280;62772;48.646;8.906;2023-07-20T06:04:39;96236.00;;;16.45;100.00
4598;BME280;62772;48.646;8.906;2023-07-20T06:09:40;96231.63;;;16.57;100.00
4598;BME280;62772;48.646;8.906;2023-07-20T06:14:40;96234.00;;;16.42;100.00
4598;BME280;62772;48.646;8.906;2023-07-20T06:19:40;96242.84;;;16.43;100.00
4598;BME280;62772;48.646;8.906;2023-07-20T06:24:41;96242.69;;;16.52;100.00
4598;BME280;62772;48.646;8.906;2023-07-20T06:29:41;96241.97;;;16.55;100.00
4598;BME280;62772;48.646;8.906;2023-07-20T06:34:42;96228.06;;;16.53;100.00
4598;BME280;62772;48.646;8.906;2023-07-20T06:39:42;96235.50;;;16.75;100.00
4598;BME280;62772;48.646;8.906;2023-07-20T06:44:43;96242.97;;;16.98;100.00
4598;BME280;62772;48.646;8.906;2023-07-20T06:49:43;96244.81;;;17.13;100.00
4598;BME280;62772;48.646;8.906;2023-07-20T06:54:44;96239.78;;;17.51;100.00
4598;BME280;62772;48.646;8.906;2023-07-20T06:59:45;96239.69;;;17.67;100.00
4598;BME280;62772;48.646;8.906;2023-07-20T07:04:45;96242.88;;;17.92;98.69
4598;BME280;62772;48.646;8.906;2023-07-20T07:09:47;96235.19;;;17.74;100.00
4598;BME280;62772;48.646;8.906;2023-07-20T07:14:47;96230.94;;;17.73;100.00
4598;BME280;62772;48.646;8.906;2023-07-20T07:19:48;96227.94;;;17.79;100.00
4598;BME280;62772;48.646;8.906;2023-07-20T07:24:48;96220.84;;;17.90;99.76
4598;BME280;62772;48.646;8.906;2023-07-20T07:29:49;96232.84;;;17.92;98.02
4598;BME280;62772;48.646;8.906;2023-07-20T07:34:49;96236.88;;;18.25;95.69
4598;BME280;62772;48.646;8.906;2023-07-20T07:39:50;96225.25;;;18.48;95.64
4598;BME280;62772;48.646;8.906;2023-07-20T07:44:50;96224.19;;;18.56;90.35
4598;BME280;62772;48.646;8.906;2023-07-20T07:49:51;96227.22;;;18.51;93.17
4598;BME280;62772;48.646;8.906;2023-07-20T07:54:51;96224.63;;;18.58;90.95
4598;BME280;62772;48.646;8.906;2023-07-20T07:59:51;96213.66;;;18.74;86.09
4598;BME280;62772;48.646;8.906;2023-07-20T08:04:52;96215.94;;;18.72;90.95
4598;BME280;62772;48.646;8.906;2023-07-20T08:09:52;96216.25;;;18.94;84.07
4598;BME280;62772;48.646;8.906;2023-07-20T08:14:53;96219.38;;;18.96;86.44
4598;BME280;62772;48.646;8.906;2023-07-20T08:19:54;96217.13;;;18.75;87.45
4598;BME280;62772;48.646;8.906;2023-07-20T08:24:54;96211.31;;;18.73;86.88
4598;BME280;62772;48.646;8.906;2023-07-20T08:29:55;96215.28;;;18.79;86.94
4598;BME280;62772;48.646;8.906;2023-07-20T08:34:55;96209.38;;;18.73;80.58
4598;BME280;62772;48.646;8.906;2023-07-20T08:39:56;96210.00;;;18.90;77.76
4598;BME280;62772;48.646;8.906;2023-07-20T08:44:57;96221.50;;;18.83;81.37
4598;BME280;62772;48.646;8.906;2023-07-20T08:49:58;96220.44;;;19.18;79.40
4598;BME280;62772;48.646;8.906;2023-07-20T08:54:59;96204.41;;;19.36;76.86
4598;BME280;62772;48.646;8.906;2023-07-20T09:00:03;96202.63;;;19.51;66.51
4598;BME280;62772;48.646;8.906;2023-07-20T09:05:11;96200.34;;;19.90;67.23
4598;BME280;62772;48.646;8.906;2023-07-20T09:10:14;96198.44;;;19.94;67.97
4598;BME280;62772;48.646;8.906;2023-07-20T09:15:15;96194.69;;;20.10;64.80
4598;BME280;62772;48.646;8.906;2023-07-20T09:20:17;96205.03;;;19.60;67.90
4598;BME280;62772;48.646;8.906;2023-07-20T09:25:19;96204.69;;;19.27;71.23
4598;BME280;62772;48.646;8.906;2023-07-20T09:30:25;96207.72;;;19.56;62.12
4598;BME280;62772;48.646;8.906;2023-07-20T09:35:26;96203.81;;;19.91;66.24
4598;BME280;62772;48.646;8.906;2023-07-20T09:40:27;96196.50;;;19.95;58.77
4598;BME280;62772;48.646;8.906;2023-07-20T09:45:29;96198.56;;;20.09;61.37
4598;BME280;62772;48.646;8.906;2023-07-20T09:50:30;96199.22;;;20.43;58.79
4598;BME280;62772;48.646;8.906;2023-07-20T09:55:31;96195.56;;;20.21;60.12
4598;BME280;62772;48.646;8.906;2023-07-20T10:00:35;96195.53;;;20.18;58.01
4598;BME280;62772;48.646;8.906;2023-07-20T10:05:43;96197.34;;;20.58;59.72
4598;BME280;62772;48.646;8.906;2023-07-20T10:10:44;96178.31;;;20.47;56.47
4598;BME280;62772;48.646;8.906;2023-07-20T10:15:50;96181.50;;;20.60;55.24
4598;BME280;62772;48.646;8.906;2023-07-20T10:20:54;96172.84;;;20.44;55.15
4598;BME280;62772;48.646;8.906;2023-07-20T10:25:55;96165.91;;;20.50;54.85
4598;BME280;62772;48.646;8.906;2023-07-20T10:30:56;96168.50;;;20.91;51.48
4598;BME280;62772;48.646;8.906;2023-07-20T10:36:01;96153.41;;;20.97;49.03
4598;BME280;62772;48.646;8.906;2023-07-20T10:41:02;96147.34;;;21.36;50.87
4598;BME280;62772;48.646;8.906;2023-07-20T10:46:02;96158.50;;;21.06;51.36
4598;BME280;62772;48.646;8.906;2023-07-20T10:51:14;96153.50;;;21.30;49.00
4598;BME280;62772;48.646;8.906;2023-07-20T10:56:21;96148.50;;;21.43;50.52
4598;BME280;62772;48.646;8.906;2023-07-20T11:01:30;96138.88;;;21.67;48.15
4598;BME280;62772;48.646;8.906;2023-07-20T11:06:34;96140.84;;;21.88;48.21
4598;BME280;62772;48.646;8.906;2023-07-20T11:11:35;96146.63;;;21.61;48.63
4598;BME280;62772;48.646;8.906;2023-07-20T11:16:37;96150.16;;;21.83;49.89
4598;BME280;62772;48.646;8.906;2023-07-20T11:21:40;96140.44;;;21.75;48.07
4598;BME280;62772;48.646;8.906;2023-07-20T11:31:48;96124.94;;;21.83;48.93
4598;BME280;62772;48.646;8.906;2023-07-20T11:36:50;96130.72;;;21.60;48.21
4598;BME280;62772;48.646;8.906;2023-07-20T11:41:53;96116.25;;;21.23;48.15
4598;BME280;62772;48.646;8.906;2023-07-20T11:47:10;96116.72;;;21.50;46.99
4598;BME280;62772;48.646;8.906;2023-07-20T11:52:13;96118.31;;;21.62;46.73
4598;BME280;62772;48.646;8.906;2023-07-20T11:57:16;96118.31;;;21.84;46.65
4598;BME280;62772;48.646;8.906;2023-07-20T12:02:17;96113.66;;;21.55;49.23
4598;BME280;62772;48.646;8.906;2023-07-20T12:07:21;96110.53;;;21.68;50.34
4598;BME280;62772;48.646;8.906;2023-07-20T12:12:21;96102.38;;;21.50;49.78
4598;BME280;62772;48.646;8.906;2023-07-20T12:17:22;96103.56;;;21.70;47.86
4598;BME280;62772;48.646;8.906;2023-07-20T12:22:22;96095.34;;;22.28;46.94
4598;BME280;62772;48.646;8.906;2023-07-20T12:27:27;96097.31;;;22.42;46.32
4598;BME280;62772;48.646;8.906;2023-07-20T12:32:28;96086.03;;;22.22;45.76
4598;BME280;62772;48.646;8.906;2023-07-20T12:37:29;96076.66;;;22.55;48.48
4598;BME280;62772;48.646;8.906;2023-07-20T12:42:30;96073.94;;;22.55;45.57
4598;BME280;62772;48.646;8.906;2023-07-20T12:47:30;96050.00;;;23.03;43.32
4598;BME280;62772;48.646;8.906;2023-07-20T12:52:30;96060.16;;;22.95;44.68
4598;BME280;62772;48.646;8.906;2023-07-20T12:57:32;96063.81;;;22.59;46.17
4598;BME280;62772;48.646;8.906;2023-07-20T13:02:33;96059.88;;;22.75;45.63
4598;BME280;62772;48.646;8.906;2023-07-20T13:07:35;96055.25;;;22.64;45.23
4598;BME280;62772;48.646;8.906;2023-07-20T13:12:37;96055.66;;;22.59;45.31
4598;BME280;62772;48.646;8.906;2023-07-20T13:17:38;96049.38;;;22.70;44.37
4598;BME280;62772;48.646;8.906;2023-07-20T13:22:40;96042.03;;;22.63;45.49
4598;BME280;62772;48.646;8.906;2023-07-20T13:27:40;96038.25;;;22.17;43.95
4598;BME280;62772;48.646;8.906;2023-07-20T13:32:41;96040.19;;;22.38;44.30
4598;BME280;62772;48.646;8.906;2023-07-20T13:37:42;96032.34;;;22.48;44.48
4598;BME280;62772;48.646;8.906;2023-07-20T13:42:42;96029.81;;;22.96;44.62
4598;BME280;62772;48.646;8.906;2023-07-20T13:47:43;96027.78;;;23.15;44.43
4598;BME280;62772;48.646;8.906;2023-07-20T13:52:43;96015.78;;;22.98;43.96
4598;BME280;62772;48.646;8.906;2023-07-20T13:57:43;96015.31;;;23.17;44.34
4598;BME280;62772;48.646;8.906;2023-07-20T14:02:44;96015.75;;;23.05;43.41
4598;BME280;62772;48.646;8.906;2023-07-20T14:07:44;96003.69;;;23.06;43.46
4598;BME280;62772;48.646;8.906;2023-07-20T14:12:45;95994.31;;;23.18;44.20
4598;BME280;62772;48.646;8.906;2023-07-20T14:17:46;96000.56;;;23.11;42.64
4598;BME280;62772;48.646;8.906;2023-07-20T14:22:46;96000.00;;;23.34;44.36
4598;BME280;62772;48.646;8.906;2023-07-20T14:27:48;95991.06;;;23.34;43.21
4598;BME280;62772;48.646;8.906;2023-07-20T14:32:49;95979.44;;;23.26;43.52
4598;BME280;62772;48.646;8.906;2023-07-20T14:37:49;95984.81;;;23.33;44.14
4598;BME280;62772;48.646;8.906;2023-07-20T14:42:50;95987.06;;;23.46;43.93
4598;BME280;62772;48.646;8.906;2023-07-20T14:47:52;95982.69;;;23.55;43.66
4598;BME280;62772;48.646;8.906;2023-07-20T14:52:53;95985.66;;;23.27;43.70
4598;BME280;62772;48.646;8.906;2023-07-20T14:57:55;95992.06;;;23.54;45.55
4598;BME280;62772;48.646;8.906;2023-07-20T15:02:55;95980.66;;;23.67;45.08
4598;BME280;62772;48.646;8.906;2023-07-20T15:07:56;95973.06;;;23.93;43.90
4598;BME280;62772;48.646;8.906;2023-07-20T15:12:56;95976.03;;;23.60;44.86
4598;BME280;62772;48.646;8.906;2023-07-20T15:17:57;95969.47;;;23.09;44.65
4598;BME280;62772;48.646;8.906;2023-07-20T15:22:57;95967.91;;;23.08;45.63
4598;BME280;62772;48.646;8.906;2023-07-20T15:27:57;95960.88;;;23.10;44.92
4598;BME280;62772;48.646;8.906;2023-07-20T15:32:58;95956.97;;;23.15;46.17
4598;BME280;62772;48.646;8.906;2023-07-20T15:37:58;95958.91;;;23.18;44.15
4598;BME280;62772;48.646;8.906;2023-07-20T15:42:59;95955.38;;;23.17;43.70
4598;BME280;62772;48.646;8.906;2023-07-20T15:48:00;95947.84;;;23.36;44.21
4598;BME280;62772;48.646;8.906;2023-07-20T15:53:00;95941.59;;;23.39;43.16
4598;BME280;62772;48.646;8.906;2023-07-20T15:58:01;95939.72;;;23.32;42.58
4598;BME280;62772;48.646;8.906;2023-07-20T16:03:02;95932.06;;;23.58;42.26
4598;BME280;62772;48.646;8.906;2023-07-20T16:08:03;95927.47;;;23.51;42.55
4598;BME280;62772;48.646;8.906;2023-07-20T16:13:04;95929.81;;;23.00;42.88
4598;BME280;62772;48.646;8.906;2023-07-20T16:18:05;95924.03;;;22.91;43.19
4598;BME280;62772;48.646;8.906;2023-07-20T16:23:06;95922.53;;;23.39;41.67
4598;BME280;62772;48.646;8.906;2023-07-20T16:28:07;95914.69;;;23.41;43.78
4598;BME280;62772;48.646;8.906;2023-07-20T16:33:09;95917.28;;;23.55;42.68
4598;BME280;62772;48.646;8.906;2023-07-20T16:38:10;95922.47;;;23.43;44.51
4598;BME280;62772;48.646;8.906;2023-07-20T16:43:11;95912.13;;;23.65;42.69
4598;BME280;62772;48.646;8.906;2023-07-20T16:48:11;95907.03;;;23.70;43.39
4598;BME280;62772;48.646;8.906;2023-07-20T16:53:12;95913.19;;;23.40;42.68
4598;BME280;62772;48.646;8.906;2023-07-20T16:58:12;95905.81;;;23.33;43.19
4598;BME280;62772;48.646;8.906;2023-07-20T17:03:16;95913.50;;;22.93;42.94
4598;BME280;62772;48.646;8.906;2023-07-20T17:08:17;95921.22;;;23.06;42.14
4598;BME280;62772;48.646;8.906;2023-07-20T17:13:17;95921.25;;;23.02;41.73
4598;BME280;62772;48.646;8.906;2023-07-20T17:18:18;95917.31;;;23.03;42.43
4598;BME280;62772;48.646;8.906;2023-07-20T17:23:18;95916.00;;;22.70;42.50
4598;BME280;62772;48.646;8.906;2023-07-20T17:28:19;95922.00;;;22.46;42.98
4598;BME280;62772;48.646;8.906;2023-07-20T17:33:20;95925.38;;;22.69;42.56
4598;BME280;62772;48.646;8.906;2023-07-20T17:38:20;95934.09;;;22.35;43.91
4598;BME280;62772;48.646;8.906;2023-07-20T17:43:22;95929.03;;;22.37;43.68
4598;BME280;62772;48.646;8.906;2023-07-20T17:48:22;95926.41;;;22.86;43.48
4598;BME280;62772;48.646;8.906;2023-07-20T17:53:23;95929.66;;;22.66;44.49
4598;BME280;62772;48.646;8.906;2023-07-20T17:58:23;95922.81;;;22.25;44.11
4598;BME280;62772;48.646;8.906;2023-07-20T18:03:24;95924.97;;;22.67;43.53
4598;BME280;62772;48.646;8.906;2023-07-20T18:08:24;95920.22;;;22.78;43.95
4598;BME280;62772;48.646;8.906;2023-07-20T18:13:26;95920.25;;;22.74;43.75
4598;BME280;62772;48.646;8.906;2023-07-20T18:18:26;95916.66;;;22.21;45.71
4598;BME280;62772;48.646;8.906;2023-07-20T18:23:27;95920.06;;;22.43;45.25
4598;BME280;62772;48.646;8.906;2023-07-20T18:28:28;95917.00;;;22.34;44.84
4598;BME280;62772;48.646;8.906;2023-07-20T18:33:29;95920.84;;;22.40;45.38
4598;BME280;62772;48.646;8.906;2023-07-20T18:38:29;95919.22;;;22.54;45.45
4598;BME280;62772;48.646;8.906;2023-07-20T18:43:30;95923.69;;;22.04;46.43
4598;BME280;62772;48.646;8.906;2023-07-20T18:48:30;95924.03;;;22.17;46.28
4598;BME280;62772;48.646;8.906;2023-07-20T18:53:31;95920.09;;;22.29;44.97
4598;BME280;62772;48.646;8.906;2023-07-20T18:58:32;95917.41;;;22.22;45.27
4598;BME280;62772;48.646;8.906;2023-07-20T19:03:33;95925.22;;;22.09;45.15
4598;BME280;62772;48.646;8.906;2023-07-20T19:08:34;95911.66;;;21.98;45.14
4598;BME280;62772;48.646;8.906;2023-07-20T19:13:35;95927.59;;;22.07;45.98
4598;BME280;62772;48.646;8.906;2023-07-20T19:18:36;95929.56;;;21.88;45.57
4598;BME280;62772;48.646;8.906;2023-07-20T19:23:40;95938.88;;;21.98;46.95
4598;BME280;62772;48.646;8.906;2023-07-20T19:28:41;95926.81;;;21.99;48.55
4598;BME280;62772;48.646;8.906;2023-07-20T19:33:41;95931.19;;;21.68;49.30
4598;BME280;62772;48.646;8.906;2023-07-20T19:38:42;95940.50;;;20.77;52.96
4598;BME280;62772;48.646;8.906;2023-07-20T19:43:42;95943.34;;;20.07;57.72
4598;BME280;62772;48.646;8.906;2023-07-20T19:48:44;95935.78;;;19.68;58.90
4598;BME280;62772;48.646;8.906;2023-07-20T19:53:45;95950.22;;;19.90;59.81
4598;BME280;62772;48.646;8.906;2023-07-20T19:58:47;95942.31;;;20.44;62.45
4598;BME280;62772;48.646;8.906;2023-07-20T20:03:48;95949.78;;;20.76;61.35
4598;BME280;62772;48.646;8.906;2023-07-20T20:08:48;95952.06;;;20.52;61.99
4598;BME280;62772;48.646;8.906;2023-07-20T20:13:49;95953.00;;;20.01;65.74
4598;BME280;62772;48.646;8.906;2023-07-20T20:18:50;95962.31;;;20.03;66.24
4598;BME280;62772;48.646;8.906;2023-07-20T20:23:51;95954.47;;;19.84;68.49
4598;BME280;62772;48.646;8.906;2023-07-20T20:28:51;95949.72;;;19.70;70.46
4598;BME280;62772;48.646;8.906;2023-07-20T20:33:52;95949.19;;;18.98;75.34
4598;BME280;62772;48.646;8.906;2023-07-20T20:38:52;95951.25;;;19.71;73.11
4598;BME280;62772;48.646;8.906;2023-07-20T20:43:53;95949.81;;;19.25;73.77
4598;BME280;62772;48.646;8.906;2023-07-20T20:48:53;95948.63;;;18.81;76.48
4598;BME280;62772;48.646;8.906;2023-07-20T20:53:54;95943.75;;;18.23;80.63
4598;BME280;62772;48.646;8.906;2023-07-20T20:58:54;95935.53;;;18.46;79.55
4598;BME280;62772;48.646;8.906;2023-07-20T21:03:55;95939.72;;;18.77;77.58
4598;BME280;62772;48.646;8.906;2023-07-20T21:08:55;95941.06;;;19.46;75.30
4598;BME280;62772;48.646;8.906;2023-07-20T21:13:56;95943.63;;;18.83;75.66
4598;BME280;62772;48.646;8.906;2023-07-20T21:18:56;95940.03;;;18.35;79.21
4598;BME280;62772;48.646;8.906;2023-07-20T21:23:57;95932.25;;;18.29;80.97
4598;BME280;62772;48.646;8.906;2023-07-20T21:28:57;95930.97;;;18.20;81.11
4598;BME280;62772;48.646;8.906;2023-07-20T21:33:58;95931.00;;;18.57;79.89
4598;BME280;62772;48.646;8.906;2023-07-20T21:38:58;95933.75;;;17.93;81.48
4598;BME280;62772;48.646;8.906;2023-07-20T21:43:59;95933.41;;;17.94;81.11
4598;BME280;62772;48.646;8.906;2023-07-20T21:49:00;95927.31;;;17.48;84.87
4598;BME280;62772;48.646;8.906;2023-07-20T21:54:00;95922.13;;;17.35;86.04
4598;BME280;62772;48.646;8.906;2023-07-20T21:59:01;95927.00;;;18.10;81.25
4598;BME280;62772;48.646;8.906;2023-07-20T22:04:01;95934.59;;;18.31;80.31
4598;BME280;62772;48.646;8.906;2023-07-20T22:09:02;95928.34;;;18.23;78.94
4598;BME280;62772;48.646;8.906;2023-07-20T22:14:02;95933.75;;;18.23;77.39
4598;BME280;62772;48.646;8.906;2023-07-20T22:19:03;95929.84;;;17.90;82.52
4598;BME280;62772;48.646;8.906;2023-07-20T22:24:04;95919.66;;;17.23;85.63
4598;BME280;62772;48.646;8.906;2023-07-20T22:29:05;95925.41;;;17.21;85.85
4598;BME280;62772;48.646;8.906;2023-07-20T22:34:05;95926.84;;;17.69;85.01
4598;BME280;62772;48.646;8.906;2023-07-20T22:39:05;95928.06;;;17.75;85.44
4598;BME280;62772;48.646;8.906;2023-07-20T22:44:06;95922.03;;;17.55;82.51
4598;BME280;62772;48.646;8.906;2023-07-20T22:49:07;95936.03;;;16.45;87.88
4598;BME280;62772;48.646;8.906;2023-07-20T22:54:08;95927.25;;;16.09;92.22
4598;BME280;62772;48.646;8.906;2023-07-20T22:59:08;95921.56;;;16.53;88.91
4598;BME280;62772;48.646;8.906;2023-07-20T23:04:11;95927.31;;;16.32;89.16
4598;BME280;62772;48.646;8.906;2023-07-20T23:09:11;95921.25;;;15.96;92.61
4598;BME280;62772;48.646;8.906;2023-07-20T23:14:13;95913.41;;;16.30;91.40
4598;BME280;62772;48.646;8.906;2023-07-20T23:19:13;95914.78;;;16.20;92.40
4598;BME280;62772;48.646;8.906;2023-07-20T23:24:14;95903.88;;;16.79;89.29
4598;BME280;62772;48.646;8.906;2023-07-20T23:29:14;95894.31;;;17.31;87.59
4598;BME280;62772;48.646;8.906;2023-07-20T23:34:15;95900.28;;;16.71;86.69
4598;BME280;62772;48.646;8.906;2023-07-20T23:39:15;95905.50;;;16.60;88.01
4598;BME280;62772;48.646;8.906;2023-07-20T23:44:16;95902.31;;;16.12;90.43
4598;BME280;62772;48.646;8.906;2023-07-20T23:49:16;95888.50;;;15.94;93.12
4598;BME280;62772;48.646;8.906;2023-07-20T23:54:17;95891.66;;;16.62;88.81
4598;BME280;62772;48.646;8.906;2023-07-20T23:59:18;95889.53;;;16.94;83.96
